Time;durP1;ratioP1;P1;durP2;ratioP2;P2;SDS_P1;SDS_P2;PMS_P1;PMS_P2;Temp;Humidity;BMP_temperature;BMP_pressure;BME280_temperature;BME280_humidity;BME280_pressure;Samples;Min_cycle;Max_cycle;Signal;HPM_P1;HPM_P2
2024/01/13 00:01:06;;;;;;;4.80;2.33;;;;;;;;;;4984585;28;20074;-69
2024/01/13 00:03:32;;;;;;;6.18;2.65;;;;;;;;;;4986727;28;20548;-69
2024/01/13 00:05:59;;;;;;;4.10;2.30;;;;;;;;;;4992541;28;20075;-69
2024/01/13 00:08:25;;;;;;;7.40;2.60;;;;;;;;;;5021855;28;20438;-69
2024/01/13 00:10:51;;;;;;;8.80;2.45;;;;;;;;;;5022897;28;20498;-69
2024/01/13 00:13:17;;;;;;;9.00;2.50;;;;;;;;;;4994692;28;20056;-69
2024/01/13 00:15:43;;;;;;;7.70;2.38;;;;;;;;;;4990056;28;20046;-69
2024/01/13 00:18:09;;;;;;;7.20;2.30;;;;;;;;;;4989635;28;20113;-69
2024/01/13 00:20:35;;;;;;;6.90;2.40;;;;;;;;;;4989127;28;20043;-69
2024/01/13 00:23:01;;;;;;;9.18;2.63;;;;;;;;;;4989706;28;20058;-69
2024/01/13 00:25:27;;;;;;;5.75;2.20;;;;;;;;;;4987988;28;20046;-69
2024/01/13 00:27:53;;;;;;;6.53;2.33;;;;;;;;;;5022125;28;20556;-68
2024/01/13 00:30:19;;;;;;;9.60;2.40;;;;;;;;;;4987259;28;20053;-68
2024/01/13 00:32:45;;;;;;;11.13;2.60;;;;;;;;;;4987579;28;20398;-69
2024/01/13 00:35:12;;;;;;;8.60;2.75;;;;;;;;;;5021733;28;20414;-69
2024/01/13 00:37:38;;;;;;;11.20;2.75;;;;;;;;;;4987562;28;20057;-69
2024/01/13 00:40:04;;;;;;;9.88;2.92;;;;;;;;;;4990519;28;20034;-69
2024/01/13 00:42:30;;;;;;;8.75;2.95;;;;;;;;;;5021014;28;20054;-69
2024/01/13 00:44:56;;;;;;;10.55;2.95;;;;;;;;;;4995569;28;20046;-69
2024/01/13 00:47:22;;;;;;;7.72;2.65;;;;;;;;;;4988005;28;20057;-69
2024/01/13 00:49:48;;;;;;;5.95;2.85;;;;;;;;;;4990591;28;20042;-68
2024/01/13 00:52:14;;;;;;;11.25;2.80;;;;;;;;;;4985740;28;20050;-69
2024/01/13 00:54:43;;;;;;;6.80;3.25;;;;;;;;;;5020050;28;20049;-69
2024/01/13 00:57:09;;;;;;;8.20;2.60;;;;;;;;;;5022267;28;20495;-69
2024/01/13 00:59:35;;;;;;;4.60;2.63;;;;;;;;;;5016511;28;20089;-69
2024/01/13 01:02:01;;;;;;;9.15;2.72;;;;;;;;;;4987418;28;20046;-69
2024/01/13 01:04:27;;;;;;;7.15;2.58;;;;;;;;;;4990528;28;20442;-68
2024/01/13 01:06:53;;;;;;;9.13;2.28;;;;;;;;;;4993156;28;20057;-69
2024/01/13 01:09:19;;;;;;;7.05;2.13;;;;;;;;;;5017913;28;20070;-68
2024/01/13 01:11:45;;;;;;;7.18;2.30;;;;;;;;;;4977634;28;20117;-68
2024/01/13 01:14:11;;;;;;;9.18;2.53;;;;;;;;;;4993430;28;20514;-69
2024/01/13 01:16:38;;;;;;;8.50;2.20;;;;;;;;;;4987419;28;20511;-69
2024/01/13 01:19:04;;;;;;;11.15;2.75;;;;;;;;;;4990774;28;20044;-69
2024/01/13 01:21:30;;;;;;;7.40;2.22;;;;;;;;;;4989342;28;20125;-69
2024/01/13 01:23:56;;;;;;;5.45;2.22;;;;;;;;;;4990412;28;20134;-69
2024/01/13 01:26:22;;;;;;;5.72;2.30;;;;;;;;;;4986047;28;20475;-69
2024/01/13 01:28:48;;;;;;;5.65;2.33;;;;;;;;;;5018725;28;20080;-69
2024/01/13 01:31:14;;;;;;;9.02;2.58;;;;;;;;;;4983414;28;20055;-68
2024/01/13 01:33:43;;;;;;;7.90;2.55;;;;;;;;;;4992197;28;20077;-69
2024/01/13 01:36:10;;;;;;;6.38;2.55;;;;;;;;;;4985006;28;20458;-69
2024/01/13 01:38:36;;;;;;;5.60;2.38;;;;;;;;;;4988687;28;20054;-69
2024/01/13 01:41:02;;;;;;;5.63;2.45;;;;;;;;;;5021342;28;20057;-69
2024/01/13 01:43:28;;;;;;;6.65;2.17;;;;;;;;;;4985684;28;20070;-69
2024/01/13 01:45:54;;;;;;;5.45;2.80;;;;;;;;;;5018039;28;20053;-69
2024/01/13 01:48:27;;;;;;;7.90;2.40;;;;;;;;;;4987526;28;20045;-69
2024/01/13 01:50:54;;;;;;;6.70;2.33;;;;;;;;;;5020432;28;20134;-69
2024/01/13 01:53:20;;;;;;;9.40;2.60;;;;;;;;;;5018795;28;20050;-69
2024/01/13 01:55:46;;;;;;;10.02;2.80;;;;;;;;;;4985589;28;20052;-69
2024/01/13 01:58:12;;;;;;;11.30;2.67;;;;;;;;;;4988786;28;20070;-69
2024/01/13 02:00:38;;;;;;;10.63;2.70;;;;;;;;;;4989654;28;20054;-69
2024/01/13 02:03:05;;;;;;;8.90;2.50;;;;;;;;;;4982672;28;20122;-69
2024/01/13 02:05:31;;;;;;;9.13;2.33;;;;;;;;;;4990899;28;20042;-69
2024/01/13 02:07:57;;;;;;;6.80;2.28;;;;;;;;;;5018549;28;20046;-69
2024/01/13 02:10:23;;;;;;;9.00;2.50;;;;;;;;;;4992318;28;20050;-69
2024/01/13 02:12:49;;;;;;;7.63;3.08;;;;;;;;;;5016210;28;20058;-69
2024/01/13 02:15:15;;;;;;;4.95;2.38;;;;;;;;;;5017504;28;20065;-69
2024/01/13 02:17:41;;;;;;;7.35;2.50;;;;;;;;;;4987253;28;20077;-70
2024/01/13 02:20:08;;;;;;;6.18;2.00;;;;;;;;;;4983750;28;20108;-69
2024/01/13 02:22:34;;;;;;;2.72;2.10;;;;;;;;;;5018747;28;20137;-70
2024/01/13 02:25:03;;;;;;;3.72;2.00;;;;;;;;;;5020176;28;20126;-69
2024/01/13 02:27:29;;;;;;;8.20;2.00;;;;;;;;;;4987121;28;20050;-70
2024/01/13 02:29:55;;;;;;;5.53;2.25;;;;;;;;;;4985337;28;20050;-69
2024/01/13 02:32:21;;;;;;;1.83;1.58;;;;;;;;;;4986214;28;20457;-69
2024/01/13 02:34:47;;;;;;;4.53;2.10;;;;;;;;;;4983577;28;20046;-69
2024/01/13 02:37:13;;;;;;;4.13;2.13;;;;;;;;;;4990358;28;20407;-69
2024/01/13 02:39:39;;;;;;;7.00;2.50;;;;;;;;;;4988688;28;20490;-69
2024/01/13 02:42:06;;;;;;;5.35;2.45;;;;;;;;;;4989762;28;20536;-69
2024/01/13 02:44:32;;;;;;;4.00;2.00;;;;;;;;;;4991512;28;20042;-70
2024/01/13 02:46:58;;;;;;;4.68;2.08;;;;;;;;;;4995310;28;20398;-69
2024/01/13 02:49:24;;;;;;;8.27;2.40;;;;;;;;;;4985815;28;20514;-69
2024/01/13 02:51:50;;;;;;;4.88;2.15;;;;;;;;;;4982288;28;20042;-69
2024/01/13 02:54:16;;;;;;;7.00;2.92;;;;;;;;;;4987708;28;20035;-69
2024/01/13 02:56:42;;;;;;;7.18;2.47;;;;;;;;;;4988983;28;20046;-70
2024/01/13 02:59:08;;;;;;;7.25;2.20;;;;;;;;;;4987832;28;20042;-69
2024/01/13 03:01:34;;;;;;;4.20;2.17;;;;;;;;;;4988073;28;20070;-69
2024/01/13 03:04:00;;;;;;;4.80;2.10;;;;;;;;;;4997384;28;20042;-69
2024/01/13 03:06:26;;;;;;;12.57;2.30;;;;;;;;;;4988392;28;20399;-70
2024/01/13 03:08:53;;;;;;;6.22;2.10;;;;;;;;;;4992329;28;20085;-69
2024/01/13 03:11:19;;;;;;;9.68;2.67;;;;;;;;;;4990232;28;20057;-69
2024/01/13 03:13:45;;;;;;;7.85;2.60;;;;;;;;;;4986190;28;20078;-69
2024/01/13 03:16:11;;;;;;;6.13;2.30;;;;;;;;;;5018570;28;20042;-69
2024/01/13 03:18:38;;;;;;;7.25;2.03;;;;;;;;;;5018310;28;20055;-70
2024/01/13 03:21:04;;;;;;;5.32;2.00;;;;;;;;;;5021385;28;20438;-69
2024/01/13 03:23:30;;;;;;;1.90;1.70;;;;;;;;;;5017877;28;20050;-70
2024/01/13 03:25:56;;;;;;;6.03;2.20;;;;;;;;;;5018354;28;20161;-69
2024/01/13 03:28:22;;;;;;;3.50;2.03;;;;;;;;;;5016300;28;20050;-69
2024/01/13 03:30:48;;;;;;;9.48;2.70;;;;;;;;;;4991384;28;20046;-69
2024/01/13 03:33:18;;;;;;;4.25;2.20;;;;;;;;;;4988264;28;20141;-69
2024/01/13 03:35:44;;;;;;;8.27;2.03;;;;;;;;;;4985153;28;20129;-69
2024/01/13 03:38:10;;;;;;;6.47;2.60;;;;;;;;;;4993251;28;20057;-69
2024/01/13 03:40:36;;;;;;;7.45;2.28;;;;;;;;;;4996868;28;20042;-69
2024/01/13 03:43:02;;;;;;;5.32;2.45;;;;;;;;;;5023385;28;20050;-69
2024/01/13 03:45:28;;;;;;;4.68;2.00;;;;;;;;;;5012869;28;20133;-70
2024/01/13 03:47:54;;;;;;;6.13;2.13;;;;;;;;;;4992918;28;20494;-69
2024/01/13 03:50:21;;;;;;;6.65;2.50;;;;;;;;;;5021816;28;20466;-70
2024/01/13 03:52:48;;;;;;;8.52;2.58;;;;;;;;;;5020090;28;20050;-70
2024/01/13 03:55:14;;;;;;;4.45;1.75;;;;;;;;;;4982983;28;20047;-69
2024/01/13 03:57:40;;;;;;;3.75;1.90;;;;;;;;;;5024062;28;20065;-69
2024/01/13 04:00:08;;;;;;;5.07;1.73;;;;;;;;;;5020481;28;20509;-69
2024/01/13 04:02:34;;;;;;;4.07;1.60;;;;;;;;;;5017770;28;20049;-70
2024/01/13 04:05:00;;;;;;;1.83;1.40;;;;;;;;;;4992503;28;20069;-69
2024/01/13 04:07:26;;;;;;;3.65;1.50;;;;;;;;;;5021967;28;20090;-70
2024/01/13 04:09:52;;;;;;;2.67;1.50;;;;;;;;;;4989997;28;20486;-69
2024/01/13 04:12:18;;;;;;;3.65;1.90;;;;;;;;;;4991351;28;20046;-69
2024/01/13 04:14:44;;;;;;;1.50;1.40;;;;;;;;;;4990866;28;20097;-68
2024/01/13 04:17:11;;;;;;;4.18;2.05;;;;;;;;;;5019495;28;20153;-69
2024/01/13 04:19:37;;;;;;;6.45;1.88;;;;;;;;;;4986089;28;20479;-69
2024/01/13 04:22:03;;;;;;;2.75;1.40;;;;;;;;;;5020938;28;20097;-69
2024/01/13 04:24:29;;;;;;;1.33;1.30;;;;;;;;;;4988261;28;20047;-69
2024/01/13 04:26:55;;;;;;;4.85;1.67;;;;;;;;;;5022959;28;20042;-69
2024/01/13 04:29:21;;;;;;;3.53;1.50;;;;;;;;;;5021164;28;20046;-69
2024/01/13 04:31:47;;;;;;;5.65;1.95;;;;;;;;;;4988096;28;20106;-69
2024/01/13 04:34:13;;;;;;;1.95;1.48;;;;;;;;;;5017531;28;20055;-69
2024/01/13 04:36:39;;;;;;;1.67;1.40;;;;;;;;;;4991470;28;20050;-69
2024/01/13 04:39:05;;;;;;;1.80;1.55;;;;;;;;;;5021457;28;20438;-69
2024/01/13 04:41:31;;;;;;;3.90;1.67;;;;;;;;;;4982957;28;20497;-69
2024/01/13 04:43:57;;;;;;;3.28;1.33;;;;;;;;;;5023108;28;20142;-69
2024/01/13 04:46:23;;;;;;;2.78;1.50;;;;;;;;;;5029703;28;20050;-70
2024/01/13 04:48:49;;;;;;;5.78;1.73;;;;;;;;;;4988264;28;20557;-69
2024/01/13 04:51:16;;;;;;;3.47;1.52;;;;;;;;;;4990143;28;20053;-69
2024/01/13 04:53:42;;;;;;;3.10;1.70;;;;;;;;;;4974628;28;20177;-70
2024/01/13 04:56:08;;;;;;;7.28;1.90;;;;;;;;;;4975803;28;20126;-69
2024/01/13 04:58:34;;;;;;;6.90;1.60;;;;;;;;;;4980586;28;20050;-69
2024/01/13 05:01:00;;;;;;;5.03;1.73;;;;;;;;;;5018099;28;20042;-69
2024/01/13 05:03:26;;;;;;;4.40;2.40;;;;;;;;;;5020931;28;21748;-69
2024/01/13 05:05:52;;;;;;;1.80;1.60;;;;;;;;;;5021557;28;20077;-70
2024/01/13 05:08:18;;;;;;;3.13;1.60;;;;;;;;;;4990184;28;20062;-69
2024/01/13 05:10:44;;;;;;;1.90;1.27;;;;;;;;;;4988910;28;20069;-69
2024/01/13 05:13:10;;;;;;;2.80;1.50;;;;;;;;;;4987181;28;20411;-70
2024/01/13 05:15:36;;;;;;;3.35;1.80;;;;;;;;;;4982224;28;20062;-69
2024/01/13 05:18:02;;;;;;;3.28;2.00;;;;;;;;;;4989504;28;20419;-69
2024/01/13 05:20:28;;;;;;;5.05;1.75;;;;;;;;;;5018278;28;20560;-69
2024/01/13 05:22:57;;;;;;;5.88;1.70;;;;;;;;;;4989260;28;20136;-69
2024/01/13 05:25:23;;;;;;;3.05;1.70;;;;;;;;;;5019487;28;20050;-69
2024/01/13 05:27:49;;;;;;;2.25;1.65;;;;;;;;;;5021450;28;20046;-69
2024/01/13 05:30:15;;;;;;;4.15;1.60;;;;;;;;;;5017648;28;20054;-69
2024/01/13 05:32:41;;;;;;;3.80;1.70;;;;;;;;;;4988456;28;20050;-69
2024/01/13 05:35:07;;;;;;;6.63;1.80;;;;;;;;;;5020060;28;20439;-70
2024/01/13 05:37:36;;;;;;;3.78;1.85;;;;;;;;;;4984570;28;20515;-69
2024/01/13 05:40:04;;;;;;;3.72;1.90;;;;;;;;;;5017205;28;20125;-69
2024/01/13 05:42:30;;;;;;;2.05;1.60;;;;;;;;;;4992546;28;20532;-70
2024/01/13 05:44:56;;;;;;;3.38;1.67;;;;;;;;;;4988210;28;20050;-69
2024/01/13 05:47:22;;;;;;;3.03;1.67;;;;;;;;;;4984808;28;20130;-69
2024/01/13 05:49:48;;;;;;;4.60;1.80;;;;;;;;;;4972458;28;20082;-69
2024/01/13 05:52:14;;;;;;;4.80;1.60;;;;;;;;;;4988857;28;20054;-69
2024/01/13 05:54:40;;;;;;;8.35;1.70;;;;;;;;;;4982904;28;20112;-69
2024/01/13 05:57:06;;;;;;;5.60;1.50;;;;;;;;;;4978682;28;20463;-69
2024/01/13 05:59:32;;;;;;;7.38;1.83;;;;;;;;;;4991458;28;20049;-69
2024/01/13 06:01:58;;;;;;;6.85;2.20;;;;;;;;;;4985761;28;20042;-69
2024/01/13 06:04:24;;;;;;;4.90;2.20;;;;;;;;;;4988861;28;20047;-69
2024/01/13 06:06:50;;;;;;;8.45;2.97;;;;;;;;;;4982160;28;20078;-69
2024/01/13 06:09:16;;;;;;;9.23;3.08;;;;;;;;;;4989009;28;20165;-69
2024/01/13 06:11:42;;;;;;;8.82;3.00;;;;;;;;;;4996171;28;20132;-69
2024/01/13 06:14:08;;;;;;;9.85;4.10;;;;;;;;;;5002940;28;20038;-69
2024/01/13 06:16:34;;;;;;;16.73;5.57;;;;;;;;;;4982421;28;20109;-69
2024/01/13 06:19:02;;;;;;;13.30;5.97;;;;;;;;;;5023645;28;20375;-69
2024/01/13 06:21:28;;;;;;;18.73;8.27;;;;;;;;;;4987539;28;20062;-69
2024/01/13 06:23:56;;;;;;;19.38;8.70;;;;;;;;;;5017863;28;20101;-69
2024/01/13 06:26:22;;;;;;;24.48;10.60;;;;;;;;;;4988602;28;20061;-68
2024/01/13 06:28:48;;;;;;;21.65;10.70;;;;;;;;;;5021095;28;20078;-69
2024/01/13 06:31:14;;;;;;;28.42;13.13;;;;;;;;;;4984026;28;20082;-68
2024/01/13 06:33:40;;;;;;;24.83;13.00;;;;;;;;;;5020749;28;20100;-69
2024/01/13 06:36:06;;;;;;;29.00;13.52;;;;;;;;;;5018488;28;20050;-69
2024/01/13 06:38:32;;;;;;;24.23;13.00;;;;;;;;;;5018272;28;20051;-70
2024/01/13 06:40:58;;;;;;;23.10;12.13;;;;;;;;;;4982779;28;20553;-69
2024/01/13 06:43:24;;;;;;;21.80;10.95;;;;;;;;;;4984243;28;20043;-69
2024/01/13 06:45:50;;;;;;;27.83;12.05;;;;;;;;;;5017608;28;20088;-69
2024/01/13 06:48:16;;;;;;;28.27;14.35;;;;;;;;;;4991377;28;20501;-69
2024/01/13 06:50:42;;;;;;;26.42;15.05;;;;;;;;;;4996195;28;20054;-69
2024/01/13 06:53:08;;;;;;;28.35;16.20;;;;;;;;;;4980196;28;20082;-69
2024/01/13 06:55:34;;;;;;;29.10;16.30;;;;;;;;;;4989871;28;20057;-69
2024/01/13 06:58:00;;;;;;;27.40;16.10;;;;;;;;;;4981328;28;20042;-69
2024/01/13 07:00:26;;;;;;;29.85;16.60;;;;;;;;;;4978588;28;20038;-69
2024/01/13 07:02:53;;;;;;;25.30;13.07;;;;;;;;;;4982955;28;20137;-69
2024/01/13 07:05:19;;;;;;;33.40;15.93;;;;;;;;;;4997509;28;20051;-69
2024/01/13 07:07:45;;;;;;;35.45;17.20;;;;;;;;;;4986210;28;20053;-68
2024/01/13 07:10:11;;;;;;;32.10;16.00;;;;;;;;;;4988647;28;20051;-69
2024/01/13 07:12:37;;;;;;;32.95;17.70;;;;;;;;;;5004435;28;20482;-69
2024/01/13 07:15:03;;;;;;;34.13;18.35;;;;;;;;;;4983727;28;20498;-69
2024/01/13 07:17:29;;;;;;;38.42;19.40;;;;;;;;;;4986747;28;20086;-69
2024/01/13 07:19:55;;;;;;;38.38;18.90;;;;;;;;;;4995721;28;20506;-69
2024/01/13 07:22:21;;;;;;;36.85;18.73;;;;;;;;;;4995940;28;20049;-69
2024/01/13 07:24:50;;;;;;;33.05;18.50;;;;;;;;;;5022464;28;20042;-69
2024/01/13 07:27:16;;;;;;;34.35;19.67;;;;;;;;;;4997393;28;20057;-68
2024/01/13 07:29:42;;;;;;;36.08;20.95;;;;;;;;;;4995432;28;20045;-69
2024/01/13 07:32:08;;;;;;;34.42;19.23;;;;;;;;;;4989307;28;20042;-69
2024/01/13 07:34:34;;;;;;;40.45;22.55;;;;;;;;;;5017570;28;20055;-70
2024/01/13 07:37:00;;;;;;;40.30;20.77;;;;;;;;;;4989233;28;20069;-69
2024/01/13 07:39:26;;;;;;;50.88;26.88;;;;;;;;;;5021484;28;20144;-69
2024/01/13 07:41:52;;;;;;;44.83;25.42;;;;;;;;;;5023744;28;20565;-69
2024/01/13 07:44:18;;;;;;;35.03;21.73;;;;;;;;;;4990696;28;20042;-69
2024/01/13 07:46:44;;;;;;;45.35;25.13;;;;;;;;;;4991092;28;20466;-69
2024/01/13 07:49:10;;;;;;;49.13;26.65;;;;;;;;;;4992785;28;20039;-69
2024/01/13 07:51:36;;;;;;;44.38;25.42;;;;;;;;;;4992801;28;20054;-69
2024/01/13 07:54:02;;;;;;;40.05;26.25;;;;;;;;;;4992416;28;20077;-69
2024/01/13 07:56:29;;;;;;;37.03;22.05;;;;;;;;;;5022250;28;20474;-69
2024/01/13 07:58:55;;;;;;;44.40;26.77;;;;;;;;;;4990653;28;20038;-69
2024/01/13 08:01:21;;;;;;;34.03;21.30;;;;;;;;;;4989541;28;20073;-69
2024/01/13 08:03:50;;;;;;;36.63;23.75;;;;;;;;;;5020237;28;20050;-69
2024/01/13 08:06:16;;;;;;;42.13;25.92;;;;;;;;;;5018007;28;20368;-69
2024/01/13 08:08:42;;;;;;;42.33;24.25;;;;;;;;;;5019601;28;20417;-70
2024/01/13 08:11:08;;;;;;;43.85;25.95;;;;;;;;;;4990398;28;20043;-70
2024/01/13 08:13:34;;;;;;;44.45;25.80;;;;;;;;;;5021803;28;20085;-70
2024/01/13 08:16:00;;;;;;;46.33;27.88;;;;;;;;;;4999780;28;20082;-70
2024/01/13 08:18:26;;;;;;;49.30;29.23;;;;;;;;;;4987570;28;20068;-69
2024/01/13 08:20:52;;;;;;;52.10;30.85;;;;;;;;;;4987769;28;20050;-69
2024/01/13 08:23:19;;;;;;;55.00;28.60;;;;;;;;;;4984559;28;20050;-69
2024/01/13 08:25:45;;;;;;;55.50;32.70;;;;;;;;;;4991501;28;20074;-69
2024/01/13 08:28:11;;;;;;;50.35;29.17;;;;;;;;;;4986435;28;20093;-69
2024/01/13 08:30:37;;;;;;;46.63;28.48;;;;;;;;;;4987735;28;20081;-70
2024/01/13 08:33:04;;;;;;;44.00;26.23;;;;;;;;;;4988938;28;20121;-69
2024/01/13 08:35:30;;;;;;;48.63;26.15;;;;;;;;;;5019488;28;20487;-69
2024/01/13 08:37:56;;;;;;;43.53;23.55;;;;;;;;;;4993601;28;20137;-69
2024/01/13 08:40:23;;;;;;;31.10;17.10;;;;;;;;;;4991025;28;20042;-68
2024/01/13 08:42:49;;;;;;;36.85;19.15;;;;;;;;;;4987749;28;20069;-70
2024/01/13 08:45:18;;;;;;;26.52;13.98;;;;;;;;;;4994210;28;20465;-69
2024/01/13 08:47:44;;;;;;;25.67;12.85;;;;;;;;;;5014287;28;20122;-70
2024/01/13 08:50:10;;;;;;;27.00;12.55;;;;;;;;;;4993309;28;20468;-69
2024/01/13 08:52:36;;;;;;;25.80;13.32;;;;;;;;;;4991921;28;20410;-70
2024/01/13 08:55:02;;;;;;;23.33;11.15;;;;;;;;;;4989573;28;20054;-69
2024/01/13 08:57:28;;;;;;;22.20;11.40;;;;;;;;;;4993405;28;20050;-69
2024/01/13 08:59:54;;;;;;;24.13;11.43;;;;;;;;;;4992694;28;20522;-69
2024/01/13 09:02:20;;;;;;;18.45;11.43;;;;;;;;;;5033106;28;20085;-70
2024/01/13 09:04:46;;;;;;;22.23;10.60;;;;;;;;;;4994193;28;20131;-69
2024/01/13 09:07:12;;;;;;;26.83;11.93;;;;;;;;;;4997153;28;20131;-69
2024/01/13 09:09:38;;;;;;;26.35;12.52;;;;;;;;;;5020038;28;20495;-70
2024/01/13 09:12:04;;;;;;;23.70;11.57;;;;;;;;;;4989337;28;20089;-69
2024/01/13 09:14:30;;;;;;;24.33;11.93;;;;;;;;;;5000403;28;20046;-70
2024/01/13 09:16:56;;;;;;;30.02;12.90;;;;;;;;;;4988569;28;20137;-69
2024/01/13 09:19:24;;;;;;;27.80;14.55;;;;;;;;;;4990009;28;20061;-71
2024/01/13 09:21:50;;;;;;;34.22;15.82;;;;;;;;;;4988473;28;20092;-70
2024/01/13 09:24:16;;;;;;;26.80;14.20;;;;;;;;;;4990461;28;20042;-69
2024/01/13 09:26:43;;;;;;;25.88;14.02;;;;;;;;;;4987009;28;20082;-70
2024/01/13 09:29:09;;;;;;;28.45;15.75;;;;;;;;;;5019656;28;20108;-70
2024/01/13 09:31:35;;;;;;;24.27;12.63;;;;;;;;;;4986208;28;20038;-70
2024/01/13 09:34:01;;;;;;;27.30;11.95;;;;;;;;;;4989890;28;20119;-69
2024/01/13 09:36:27;;;;;;;23.80;11.43;;;;;;;;;;4985388;28;20165;-69
2024/01/13 09:38:54;;;;;;;21.10;10.70;;;;;;;;;;4989942;28;20398;-70
2024/01/13 09:41:20;;;;;;;17.55;10.20;;;;;;;;;;4991969;28;20045;-68
2024/01/13 09:44:05;;;;;;;37.05;17.48;;;;;;;;;;5025750;28;20050;-70
2024/01/13 09:46:31;;;;;;;21.27;10.18;;;;;;;;;;4985831;28;20050;-70
2024/01/13 09:48:57;;;;;;;21.77;9.77;;;;;;;;;;4994810;28;20061;-70
2024/01/13 09:51:23;;;;;;;28.88;10.40;;;;;;;;;;4986703;28;20054;-69
2024/01/13 09:53:55;;;;;;;18.52;9.93;;;;;;;;;;4998071;28;20104;-69
2024/01/13 09:56:23;;;;;;;24.60;9.85;;;;;;;;;;4987810;28;20052;-70
2024/01/13 09:58:49;;;;;;;23.42;10.45;;;;;;;;;;4988106;28;20046;-70
2024/01/13 10:01:15;;;;;;;18.48;8.50;;;;;;;;;;4986949;28;20046;-69
2024/01/13 10:03:41;;;;;;;20.20;9.43;;;;;;;;;;5021936;28;20157;-69
2024/01/13 10:06:07;;;;;;;19.70;10.30;;;;;;;;;;4977693;28;20140;-70
2024/01/13 10:08:34;;;;;;;19.13;10.70;;;;;;;;;;5016744;28;20065;-70
2024/01/13 10:11:03;;;;;;;31.17;11.45;;;;;;;;;;5021028;28;20081;-69
2024/01/13 10:13:32;;;;;;;21.40;11.88;;;;;;;;;;4990168;28;20062;-70
2024/01/13 10:15:58;;;;;;;29.10;10.30;;;;;;;;;;4982076;28;20131;-70
2024/01/13 10:18:25;;;;;;;21.90;11.02;;;;;;;;;;4985160;28;20065;-70
2024/01/13 10:20:51;;;;;;;24.35;9.35;;;;;;;;;;5021233;28;20050;-69
2024/01/13 10:23:18;;;;;;;15.90;8.18;;;;;;;;;;4990861;28;20085;-70
2024/01/13 10:25:44;;;;;;;16.17;6.57;;;;;;;;;;4984542;28;20090;-70
2024/01/13 10:28:10;;;;;;;7.72;3.42;;;;;;;;;;5018293;28;20169;-70
2024/01/13 10:30:36;;;;;;;11.32;3.47;;;;;;;;;;4982438;28;20082;-70
2024/01/13 10:33:03;;;;;;;11.02;3.10;;;;;;;;;;4996211;28;20089;-70
2024/01/13 10:35:29;;;;;;;10.98;3.45;;;;;;;;;;4989354;28;20057;-68
2024/01/13 10:37:58;;;;;;;10.20;3.40;;;;;;;;;;4991594;28;20041;-70
2024/01/13 10:40:25;;;;;;;11.57;3.70;;;;;;;;;;5025101;28;20165;-70
2024/01/13 10:42:56;;;;;;;10.32;3.50;;;;;;;;;;4987901;28;20658;-70
2024/01/13 10:45:23;;;;;;;8.30;3.47;;;;;;;;;;4990163;28;20557;-70
2024/01/13 10:47:53;;;;;;;15.27;3.67;;;;;;;;;;5022217;28;20093;-69
2024/01/13 10:50:20;;;;;;;9.25;3.10;;;;;;;;;;4991297;28;20085;-69
2024/01/13 10:52:46;;;;;;;12.15;3.92;;;;;;;;;;5008192;28;20046;-70
2024/01/13 10:55:13;;;;;;;11.02;3.55;;;;;;;;;;4989249;28;20058;-70
2024/01/13 10:57:39;;;;;;;17.60;3.40;;;;;;;;;;4998488;28;20030;-70
2024/01/13 11:00:08;;;;;;;10.55;3.00;;;;;;;;;;4982951;28;20058;-69
2024/01/13 11:02:34;;;;;;;10.50;2.80;;;;;;;;;;4985750;28;20548;-70
2024/01/13 11:05:00;;;;;;;12.80;3.15;;;;;;;;;;4988315;28;20491;-69
2024/01/13 11:07:26;;;;;;;9.90;3.25;;;;;;;;;;5016853;28;20101;-69
2024/01/13 11:09:53;;;;;;;10.10;3.40;;;;;;;;;;4988640;28;20078;-69
2024/01/13 11:12:29;;;;;;;10.18;3.45;;;;;;;;;;4991722;28;20487;-69
2024/01/13 11:14:59;;;;;;;7.07;2.85;;;;;;;;;;4992128;28;20057;-68
2024/01/13 11:17:25;;;;;;;8.23;2.70;;;;;;;;;;4988423;28;20038;-70
2024/01/13 11:19:51;;;;;;;8.88;2.70;;;;;;;;;;4988917;28;20051;-69
2024/01/13 11:22:40;;;;;;;13.13;3.63;;;;;;;;;;4993144;28;20099;-69
2024/01/13 11:25:07;;;;;;;15.73;3.75;;;;;;;;;;4987631;28;20521;-69
2024/01/13 11:27:33;;;;;;;10.18;3.40;;;;;;;;;;4989731;28;20054;-68
2024/01/13 11:30:00;;;;;;;9.27;3.67;;;;;;;;;;4985905;28;20047;-69
2024/01/13 11:32:26;;;;;;;15.52;3.72;;;;;;;;;;4986259;28;20046;-70
2024/01/13 11:34:52;;;;;;;8.77;3.85;;;;;;;;;;4998378;28;20137;-68
2024/01/13 11:37:18;;;;;;;10.40;3.58;;;;;;;;;;4985402;28;20054;-72
2024/01/13 11:39:48;;;;;;;14.98;5.22;;;;;;;;;;5026135;28;20047;-69
2024/01/13 11:42:17;;;;;;;12.95;4.15;;;;;;;;;;5024262;28;20053;-69
2024/01/13 11:44:49;;;;;;;12.75;4.40;;;;;;;;;;5025472;28;20043;-69
2024/01/13 11:47:26;;;;;;;7.82;3.50;;;;;;;;;;4995262;28;20125;-69
2024/01/13 11:49:53;;;;;;;12.07;3.92;;;;;;;;;;5024720;28;20050;-69
2024/01/13 11:52:31;;;;;;;15.35;3.70;;;;;;;;;;4994352;28;20050;-68
2024/01/13 11:54:58;;;;;;;9.50;3.60;;;;;;;;;;4991726;28;20410;-69
2024/01/13 11:57:24;;;;;;;9.57;3.70;;;;;;;;;;4995637;28;20037;-68
2024/01/13 11:59:50;;;;;;;9.80;3.47;;;;;;;;;;5024004;28;20050;-69
2024/01/13 12:02:16;;;;;;;9.88;3.38;;;;;;;;;;4984281;28;20403;-69
2024/01/13 12:04:43;;;;;;;12.93;3.63;;;;;;;;;;5017449;28;20038;-69
2024/01/13 12:07:12;;;;;;;7.78;3.10;;;;;;;;;;4987084;28;20442;-70
2024/01/13 12:09:40;;;;;;;9.13;3.58;;;;;;;;;;4988068;28;20058;-70
2024/01/13 12:12:06;;;;;;;6.85;3.30;;;;;;;;;;4991132;28;20057;-70
2024/01/13 12:14:34;;;;;;;10.38;3.30;;;;;;;;;;5022548;28;20463;-70
2024/01/13 12:17:01;;;;;;;12.07;3.85;;;;;;;;;;4986126;28;20043;-70
2024/01/13 12:19:32;;;;;;;16.58;4.10;;;;;;;;;;4986529;28;20050;-70
2024/01/13 12:21:58;;;;;;;10.32;3.05;;;;;;;;;;4991969;28;20096;-70
2024/01/13 12:24:27;;;;;;;10.70;3.60;;;;;;;;;;4989872;28;20049;-71
2024/01/13 12:26:54;;;;;;;11.90;3.70;;;;;;;;;;4985170;28;20038;-73
2024/01/13 12:29:21;;;;;;;10.05;3.38;;;;;;;;;;5017978;28;20082;-72
2024/01/13 12:31:48;;;;;;;11.75;3.58;;;;;;;;;;5017785;28;20050;-71
2024/01/13 12:34:15;;;;;;;15.77;3.95;;;;;;;;;;5003664;28;20442;-71
2024/01/13 12:36:41;;;;;;;13.15;4.20;;;;;;;;;;5024799;28;20042;-71
2024/01/13 12:39:07;;;;;;;15.70;4.80;;;;;;;;;;5009436;28;20053;-71
2024/01/13 12:41:34;;;;;;;8.20;3.30;;;;;;;;;;4993782;28;20053;-71
2024/01/13 12:44:01;;;;;;;15.63;4.00;;;;;;;;;;4980296;28;20049;-71
2024/01/13 12:46:27;;;;;;;16.25;4.22;;;;;;;;;;4983088;28;20061;-71
2024/01/13 12:48:54;;;;;;;12.65;3.95;;;;;;;;;;4977025;28;20046;-71
2024/01/13 12:51:20;;;;;;;12.57;3.95;;;;;;;;;;4980460;28;20043;-71
2024/01/13 12:53:47;;;;;;;17.60;4.15;;;;;;;;;;4976737;28;20054;-71
2024/01/13 12:56:13;;;;;;;16.42;4.05;;;;;;;;;;4976046;28;20152;-71
2024/01/13 12:58:39;;;;;;;17.95;3.78;;;;;;;;;;4981055;28;20125;-71
2024/01/13 13:01:05;;;;;;;13.65;3.30;;;;;;;;;;5024129;28;20406;-71
2024/01/13 13:03:32;;;;;;;14.40;3.97;;;;;;;;;;4975826;28;20050;-71
2024/01/13 13:05:58;;;;;;;10.93;3.67;;;;;;;;;;4984383;28;20129;-71
2024/01/13 13:08:24;;;;;;;17.73;4.20;;;;;;;;;;4983513;28;20081;-71
2024/01/13 13:10:50;;;;;;;15.50;3.33;;;;;;;;;;4982092;28;20043;-71
2024/01/13 13:13:17;;;;;;;15.10;3.83;;;;;;;;;;4991546;28;20046;-71
2024/01/13 13:15:43;;;;;;;13.05;3.35;;;;;;;;;;4991611;28;20038;-72
2024/01/13 13:18:10;;;;;;;9.13;3.17;;;;;;;;;;4992103;28;20058;-71
2024/01/13 13:20:36;;;;;;;13.00;3.63;;;;;;;;;;4992674;28;20089;-72
2024/01/13 13:23:02;;;;;;;11.63;3.25;;;;;;;;;;4992186;28;20050;-71
2024/01/13 13:25:28;;;;;;;10.25;3.35;;;;;;;;;;5014221;28;20043;-71
2024/01/13 13:28:01;;;;;;;7.60;2.75;;;;;;;;;;4972280;28;21368;-71
2024/01/13 13:30:27;;;;;;;13.85;3.67;;;;;;;;;;4987769;28;20050;-71
2024/01/13 13:32:53;;;;;;;14.40;3.58;;;;;;;;;;4991437;28;20054;-72
2024/01/13 13:35:19;;;;;;;13.45;4.20;;;;;;;;;;4992594;28;20405;-71
2024/01/13 13:37:48;;;;;;;15.15;4.72;;;;;;;;;;4983492;28;20503;-71
2024/01/13 13:40:14;;;;;;;19.75;3.88;;;;;;;;;;4984467;28;20061;-71
2024/01/13 13:42:40;;;;;;;19.20;5.10;;;;;;;;;;5008028;28;20042;-72
2024/01/13 13:45:06;;;;;;;22.50;4.70;;;;;;;;;;4985429;28;20060;-71
2024/01/13 13:47:32;;;;;;;9.38;3.60;;;;;;;;;;5009813;28;20545;-72
2024/01/13 13:49:58;;;;;;;15.45;3.95;;;;;;;;;;4980121;28;20089;-72
2024/01/13 13:52:24;;;;;;;14.18;4.65;;;;;;;;;;4993897;28;20145;-71
2024/01/13 13:54:50;;;;;;;18.30;4.38;;;;;;;;;;4987833;28;20051;-71
2024/01/13 13:57:16;;;;;;;17.80;4.40;;;;;;;;;;4993074;28;20474;-71
2024/01/13 13:59:42;;;;;;;16.42;4.28;;;;;;;;;;4990162;28;20042;-72
2024/01/13 14:02:08;;;;;;;15.57;4.47;;;;;;;;;;5015869;28;20514;-71
2024/01/13 14:04:34;;;;;;;16.85;4.75;;;;;;;;;;4980480;28;20461;-72
2024/01/13 14:07:00;;;;;;;18.10;4.55;;;;;;;;;;4989432;28;20162;-71
2024/01/13 14:09:26;;;;;;;17.77;3.90;;;;;;;;;;5019039;28;20129;-72
2024/01/13 14:11:52;;;;;;;14.30;3.85;;;;;;;;;;4984524;28;20125;-71
2024/01/13 14:14:18;;;;;;;16.45;4.05;;;;;;;;;;5022725;28;20078;-71
2024/01/13 14:16:44;;;;;;;12.55;4.10;;;;;;;;;;5023074;28;20140;-71
2024/01/13 14:19:10;;;;;;;20.98;4.40;;;;;;;;;;5005383;28;20051;-71
2024/01/13 14:21:36;;;;;;;15.02;4.10;;;;;;;;;;4992210;28;20091;-71
2024/01/13 14:24:03;;;;;;;14.80;5.20;;;;;;;;;;5022301;28;20073;-71
2024/01/13 14:26:29;;;;;;;21.30;4.53;;;;;;;;;;4981839;28;20050;-71
2024/01/13 14:28:55;;;;;;;12.40;4.45;;;;;;;;;;4990898;28;20042;-71